sensor_id;sensor_type;location;lat;lon;timestamp;P1;P2;P0
76049;PMS7003;64967;50.234;19.224;2023-03-01T00:01:00;73.25;52.50;34.00
76049;PMS7003;64967;50.234;19.224;2023-03-01T00:03:32;72.50;55.50;36.25
76049;PMS7003;64967;50.234;19.224;2023-03-01T00:06:00;80.00;58.00;34.25
76049;PMS7003;64967;50.234;19.224;2023-03-01T00:08:27;62.50;51.00;31.75
76049;PMS7003;64967;50.234;19.224;2023-03-01T00:13:36;58.75;46.25;30.00
76049;PMS7003;64967;50.234;19.224;2023-03-01T00:16:04;61.00;45.00;29.00
76049;PMS7003;64967;50.234;19.224;2023-03-01T00:18:32;47.25;37.50;24.75
76049;PMS7003;64967;50.234;19.224;2023-03-01T00:20:59;63.50;50.75;30.00
76049;PMS7003;64967;50.234;19.224;2023-03-01T00:23:26;47.75;35.75;22.00
76049;PMS7003;64967;50.234;19.224;2023-03-01T00:25:54;45.50;32.50;17.75
76049;PMS7003;64967;50.234;19.224;2023-03-01T00:28:21;36.25;31.25;20.25
76049;PMS7003;64967;50.234;19.224;2023-03-01T00:30:48;31.00;27.00;16.00
76049;PMS7003;64967;50.234;19.224;2023-03-01T00:33:15;26.33;19.00;13.33
76049;PMS7003;64967;50.234;19.224;2023-03-01T00:35:42;28.00;24.00;14.33
76049;PMS7003;64967;50.234;19.224;2023-03-01T00:38:09;23.00;20.33;13.00
76049;PMS7003;64967;50.234;19.224;2023-03-01T00:40:36;43.50;26.50;15.00
76049;PMS7003;64967;50.234;19.224;2023-03-01T00:43:03;41.75;32.75;19.50
76049;PMS7003;64967;50.234;19.224;2023-03-01T00:45:30;33.50;29.00;18.75
76049;PMS7003;64967;50.234;19.224;2023-03-01T00:47:59;54.00;33.50;22.00
76049;PMS7003;64967;50.234;19.224;2023-03-01T00:50:26;78.50;54.25;35.75
76049;PMS7003;64967;50.234;19.224;2023-03-01T00:52:53;63.50;49.00;33.00
76049;PMS7003;64967;50.234;19.224;2023-03-01T00:55:21;84.00;62.75;37.75
76049;PMS7003;64967;50.234;19.224;2023-03-01T00:57:50;88.50;65.25;41.25
76049;PMS7003;64967;50.234;19.224;2023-03-01T01:00:17;65.25;52.50;36.00
76049;PMS7003;64967;50.234;19.224;2023-03-01T01:02:45;80.50;58.00;37.00
76049;PMS7003;64967;50.234;19.224;2023-03-01T01:05:13;60.50;46.50;30.00
76049;PMS7003;64967;50.234;19.224;2023-03-01T01:07:41;49.50;41.75;26.00
76049;PMS7003;64967;50.234;19.224;2023-03-01T01:10:08;82.75;65.00;41.50
76049;PMS7003;64967;50.234;19.224;2023-03-01T01:12:39;102.00;69.00;42.00
76049;PMS7003;64967;50.234;19.224;2023-03-01T01:15:06;91.50;63.75;41.50
76049;PMS7003;64967;50.234;19.224;2023-03-01T01:17:33;95.00;66.00;40.00
76049;PMS7003;64967;50.234;19.224;2023-03-01T01:20:00;84.25;60.75;40.00
76049;PMS7003;64967;50.234;19.224;2023-03-01T01:22:27;89.00;65.75;41.75
76049;PMS7003;64967;50.234;19.224;2023-03-01T01:24:54;90.50;67.50;42.00
76049;PMS7003;64967;50.234;19.224;2023-03-01T01:27:21;89.75;63.75;37.50
76049;PMS7003;64967;50.234;19.224;2023-03-01T01:29:48;93.50;66.00;42.00
76049;PMS7003;64967;50.234;19.224;2023-03-01T01:32:15;81.75;62.00;40.50
76049;PMS7003;64967;50.234;19.224;2023-03-01T01:34:42;78.75;60.50;38.25
76049;PMS7003;64967;50.234;19.224;2023-03-01T01:37:09;81.50;61.50;39.25
76049;PMS7003;64967;50.234;19.224;2023-03-01T01:39:36;92.50;66.75;43.00
76049;PMS7003;64967;50.234;19.224;2023-03-01T01:42:03;77.50;57.25;35.50
76049;PMS7003;64967;50.234;19.224;2023-03-01T01:44:30;71.00;48.75;33.00
76049;PMS7003;64967;50.234;19.224;2023-03-01T01:47:07;62.50;49.50;32.00
76049;PMS7003;64967;50.234;19.224;2023-03-01T01:49:49;85.50;62.00;40.00
76049;PMS7003;64967;50.234;19.224;2023-03-01T01:52:22;73.75;59.25;37.75
76049;PMS7003;64967;50.234;19.224;2023-03-01T01:55:04;61.75;48.25;29.50
76049;PMS7003;64967;50.234;19.224;2023-03-01T01:57:39;64.25;47.50;30.00
76049;PMS7003;64967;50.234;19.224;2023-03-01T02:00:14;79.00;60.50;39.00
76049;PMS7003;64967;50.234;19.224;2023-03-01T02:02:45;68.50;53.00;33.75
76049;PMS7003;64967;50.234;19.224;2023-03-01T02:07:51;78.50;60.00;37.75
76049;PMS7003;64967;50.234;19.224;2023-03-01T02:10:19;71.50;48.25;31.00
76049;PMS7003;64967;50.234;19.224;2023-03-01T02:13:00;67.75;53.00;34.00
76049;PMS7003;64967;50.234;19.224;2023-03-01T02:15:44;62.00;48.00;29.00
76049;PMS7003;64967;50.234;19.224;2023-03-01T02:18:24;71.25;49.00;30.00
76049;PMS7003;64967;50.234;19.224;2023-03-01T02:27:44;62.00;48.25;32.50
76049;PMS7003;64967;50.234;19.224;2023-03-01T02:30:21;93.25;66.75;42.25
76049;PMS7003;64967;50.234;19.224;2023-03-01T02:32:52;94.50;65.00;40.00
76049;PMS7003;64967;50.234;19.224;2023-03-01T02:35:33;79.50;58.75;36.00
76049;PMS7003;64967;50.234;19.224;2023-03-01T02:38:03;71.00;51.00;33.25
76049;PMS7003;64967;50.234;19.224;2023-03-01T02:40:35;62.25;48.75;31.00
76049;PMS7003;64967;50.234;19.224;2023-03-01T02:43:04;69.75;52.00;33.00
76049;PMS7003;64967;50.234;19.224;2023-03-01T02:45:35;81.25;57.00;36.00
76049;PMS7003;64967;50.234;19.224;2023-03-01T02:48:02;72.50;54.00;34.50
76049;PMS7003;64967;50.234;19.224;2023-03-01T02:55:44;49.75;39.50;26.00
76049;PMS7003;64967;50.234;19.224;2023-03-01T02:58:11;61.00;47.75;28.25
76049;PMS7003;64967;50.234;19.224;2023-03-01T03:00:40;56.00;40.25;24.75
76049;PMS7003;64967;50.234;19.224;2023-03-01T03:03:16;40.50;38.00;27.00
76049;PMS7003;64967;50.234;19.224;2023-03-01T03:05:44;75.00;55.75;34.00
76049;PMS7003;64967;50.234;19.224;2023-03-01T03:08:11;79.00;59.00;36.25
76049;PMS7003;64967;50.234;19.224;2023-03-01T03:10:39;82.75;63.25;40.25
76049;PMS7003;64967;50.234;19.224;2023-03-01T03:13:09;76.75;58.50;39.50
76049;PMS7003;64967;50.234;19.224;2023-03-01T03:15:39;72.00;51.50;32.50
76049;PMS7003;64967;50.234;19.224;2023-03-01T03:18:08;74.00;56.00;36.00
76049;PMS7003;64967;50.234;19.224;2023-03-01T03:20:37;83.25;58.75;37.75
76049;PMS7003;64967;50.234;19.224;2023-03-01T03:23:07;66.00;47.25;30.00
76049;PMS7003;64967;50.234;19.224;2023-03-01T03:25:34;88.25;60.00;39.50
76049;PMS7003;64967;50.234;19.224;2023-03-01T03:28:05;76.00;58.00;39.00
76049;PMS7003;64967;50.234;19.224;2023-03-01T03:30:37;60.25;46.75;30.00
76049;PMS7003;64967;50.234;19.224;2023-03-01T03:33:07;67.50;47.50;30.00
76049;PMS7003;64967;50.234;19.224;2023-03-01T03:35:40;61.00;42.50;28.00
76049;PMS7003;64967;50.234;19.224;2023-03-01T03:38:10;43.75;34.25;23.75
76049;PMS7003;64967;50.234;19.224;2023-03-01T03:40:45;29.00;24.50;15.75
76049;PMS7003;64967;50.234;19.224;2023-03-01T03:43:17;51.75;40.75;28.00
76049;PMS7003;64967;50.234;19.224;2023-03-01T03:45:46;73.00;51.50;33.00
76049;PMS7003;64967;50.234;19.224;2023-03-01T03:48:15;59.00;44.00;30.50
76049;PMS7003;64967;50.234;19.224;2023-03-01T03:50:47;59.25;49.75;33.75
76049;PMS7003;64967;50.234;19.224;2023-03-01T03:53:15;83.25;63.50;41.50
76049;PMS7003;64967;50.234;19.224;2023-03-01T03:55:42;89.75;69.50;45.50
76049;PMS7003;64967;50.234;19.224;2023-03-01T03:58:10;83.00;62.00;40.00
76049;PMS7003;64967;50.234;19.224;2023-03-01T04:00:39;73.25;58.25;34.00
76049;PMS7003;64967;50.234;19.224;2023-03-01T04:03:10;65.25;47.00;29.00
76049;PMS7003;64967;50.234;19.224;2023-03-01T04:05:39;61.50;48.50;30.50
76049;PMS7003;64967;50.234;19.224;2023-03-01T04:08:08;67.50;49.00;28.50
76049;PMS7003;64967;50.234;19.224;2023-03-01T04:10:37;73.25;52.50;33.00
76049;PMS7003;64967;50.234;19.224;2023-03-01T04:13:06;84.50;63.00;42.00
76049;PMS7003;64967;50.234;19.224;2023-03-01T04:15:35;69.00;53.00;33.75
76049;PMS7003;64967;50.234;19.224;2023-03-01T04:18:02;50.00;39.25;23.00
76049;PMS7003;64967;50.234;19.224;2023-03-01T04:20:30;66.00;48.00;31.00
76049;PMS7003;64967;50.234;19.224;2023-03-01T04:23:02;55.50;43.50;30.00
76049;PMS7003;64967;50.234;19.224;2023-03-01T04:25:40;74.00;49.00;33.00
76049;PMS7003;64967;50.234;19.224;2023-03-01T04:28:15;69.25;51.00;32.50
76049;PMS7003;64967;50.234;19.224;2023-03-01T04:30:43;54.50;42.25;28.50
76049;PMS7003;64967;50.234;19.224;2023-03-01T04:33:10;47.75;36.50;21.75
76049;PMS7003;64967;50.234;19.224;2023-03-01T04:35:38;36.75;30.75;21.75
76049;PMS7003;64967;50.234;19.224;2023-03-01T04:38:05;49.00;38.50;24.00
76049;PMS7003;64967;50.234;19.224;2023-03-01T04:40:33;59.25;42.75;27.25
76049;PMS7003;64967;50.234;19.224;2023-03-01T04:43:02;46.75;37.25;23.75
76049;PMS7003;64967;50.234;19.224;2023-03-01T04:45:29;36.25;25.00;18.00
76049;PMS7003;64967;50.234;19.224;2023-03-01T04:47:58;44.00;40.50;27.25
76049;PMS7003;64967;50.234;19.224;2023-03-01T04:50:25;46.00;32.75;21.75
76049;PMS7003;64967;50.234;19.224;2023-03-01T04:52:52;29.75;25.50;16.50
76049;PMS7003;64967;50.234;19.224;2023-03-01T04:55:20;27.50;21.00;13.00
76049;PMS7003;64967;50.234;19.224;2023-03-01T04:57:47;31.75;27.50;20.00
76049;PMS7003;64967;50.234;19.224;2023-03-01T05:00:15;67.00;49.75;31.25
76049;PMS7003;64967;50.234;19.224;2023-03-01T05:02:49;51.25;43.50;27.75
76049;PMS7003;64967;50.234;19.224;2023-03-01T05:05:28;66.00;48.25;29.50
76049;PMS7003;64967;50.234;19.224;2023-03-01T05:07:58;44.50;28.50;19.50
76049;PMS7003;64967;50.234;19.224;2023-03-01T05:10:28;37.50;28.25;15.50
76049;PMS7003;64967;50.234;19.224;2023-03-01T05:12:57;46.25;39.25;27.00
76049;PMS7003;64967;50.234;19.224;2023-03-01T05:15:28;56.00;44.25;24.25
76049;PMS7003;64967;50.234;19.224;2023-03-01T05:17:57;51.25;41.75;26.25
76049;PMS7003;64967;50.234;19.224;2023-03-01T05:20:26;51.75;42.50;28.50
76049;PMS7003;64967;50.234;19.224;2023-03-01T05:22:55;43.25;32.25;19.00
76049;PMS7003;64967;50.234;19.224;2023-03-01T05:25:32;49.50;36.25;24.00
76049;PMS7003;64967;50.234;19.224;2023-03-01T05:28:01;40.25;34.00;22.25
76049;PMS7003;64967;50.234;19.224;2023-03-01T05:30:33;28.75;27.00;18.75
76049;PMS7003;64967;50.234;19.224;2023-03-01T05:33:00;21.50;16.50;9.00
76049;PMS7003;64967;50.234;19.224;2023-03-01T05:35:28;19.00;19.00;16.00
76049;PMS7003;64967;50.234;19.224;2023-03-01T05:37:56;66.25;48.50;32.50
76049;PMS7003;64967;50.234;19.224;2023-03-01T05:40:23;65.25;41.00;24.25
76049;PMS7003;64967;50.234;19.224;2023-03-01T05:42:54;79.00;60.00;38.50
76049;PMS7003;64967;50.234;19.224;2023-03-01T05:45:23;71.25;55.50;34.50
76049;PMS7003;64967;50.234;19.224;2023-03-01T05:47:51;77.50;58.50;37.50
76049;PMS7003;64967;50.234;19.224;2023-03-01T05:50:20;88.75;66.00;40.00
76049;PMS7003;64967;50.234;19.224;2023-03-01T05:55:26;85.25;60.25;37.25
76049;PMS7003;64967;50.234;19.224;2023-03-01T05:57:54;78.50;62.25;40.25
76049;PMS7003;64967;50.234;19.224;2023-03-01T06:00:22;83.00;61.50;39.00
76049;PMS7003;64967;50.234;19.224;2023-03-01T06:02:49;63.25;49.50;35.00
76049;PMS7003;64967;50.234;19.224;2023-03-01T06:05:16;60.50;48.75;33.00
76049;PMS7003;64967;50.234;19.224;2023-03-01T06:07:43;59.25;48.00;30.75
76049;PMS7003;64967;50.234;19.224;2023-03-01T06:10:11;68.00;44.00;27.75
76049;PMS7003;64967;50.234;19.224;2023-03-01T06:12:40;70.25;56.50;35.50
76049;PMS7003;64967;50.234;19.224;2023-03-01T06:15:09;65.00;50.50;33.50
76049;PMS7003;64967;50.234;19.224;2023-03-01T06:17:37;57.00;43.25;27.50
76049;PMS7003;64967;50.234;19.224;2023-03-01T06:20:11;45.75;42.75;25.25
76049;PMS7003;64967;50.234;19.224;2023-03-01T06:22:40;48.75;39.50;25.75
76049;PMS7003;64967;50.234;19.224;2023-03-01T06:25:09;41.25;39.00;27.50
76049;PMS7003;64967;50.234;19.224;2023-03-01T06:27:37;67.50;54.00;34.00
76049;PMS7003;64967;50.234;19.224;2023-03-01T06:30:04;72.00;52.00;33.00
76049;PMS7003;64967;50.234;19.224;2023-03-01T06:32:31;93.75;69.50;42.50
76049;PMS7003;64967;50.234;19.224;2023-03-01T06:34:58;88.75;66.00;39.25
76049;PMS7003;64967;50.234;19.224;2023-03-01T06:37:25;68.50;48.75;33.25
76049;PMS7003;64967;50.234;19.224;2023-03-01T06:39:52;68.50;54.25;33.00
76049;PMS7003;64967;50.234;19.224;2023-03-01T06:42:19;55.50;47.00;28.50
76049;PMS7003;64967;50.234;19.224;2023-03-01T06:44:46;72.00;52.50;34.00
76049;PMS7003;64967;50.234;19.224;2023-03-01T06:47:13;66.25;49.00;30.25
76049;PMS7003;64967;50.234;19.224;2023-03-01T06:49:40;60.00;45.00;30.00
76049;PMS7003;64967;50.234;19.224;2023-03-01T06:52:07;72.00;57.75;36.25
76049;PMS7003;64967;50.234;19.224;2023-03-01T06:54:34;85.00;64.00;41.50
76049;PMS7003;64967;50.234;19.224;2023-03-01T06:57:01;56.75;49.00;30.75
76049;PMS7003;64967;50.234;19.224;2023-03-01T06:59:28;65.50;47.25;32.50
76049;PMS7003;64967;50.234;19.224;2023-03-01T07:01:56;65.50;49.00;33.00
76049;PMS7003;64967;50.234;19.224;2023-03-01T07:04:22;55.25;46.50;30.50
76049;PMS7003;64967;50.234;19.224;2023-03-01T07:06:49;69.00;51.00;33.50
76049;PMS7003;64967;50.234;19.224;2023-03-01T07:09:22;50.25;44.00;28.25
76049;PMS7003;64967;50.234;19.224;2023-03-01T07:11:50;45.75;35.75;19.75
76049;PMS7003;64967;50.234;19.224;2023-03-01T07:14:17;50.75;40.50;28.00
76049;PMS7003;64967;50.234;19.224;2023-03-01T07:16:44;67.75;49.50;33.00
76049;PMS7003;64967;50.234;19.224;2023-03-01T07:19:11;67.00;48.00;30.75
76049;PMS7003;64967;50.234;19.224;2023-03-01T07:21:38;77.00;53.75;32.25
76049;PMS7003;64967;50.234;19.224;2023-03-01T07:24:06;66.25;48.75;31.50
76049;PMS7003;64967;50.234;19.224;2023-03-01T07:26:33;46.00;38.00;25.67
76049;PMS7003;64967;50.234;19.224;2023-03-01T07:29:01;53.75;41.50;27.00
76049;PMS7003;64967;50.234;19.224;2023-03-01T07:31:29;42.00;31.00;23.00
76049;PMS7003;64967;50.234;19.224;2023-03-01T07:33:57;38.33;33.67;22.67
76049;PMS7003;64967;50.234;19.224;2023-03-01T07:36:24;37.00;32.00;22.33
76049;PMS7003;64967;50.234;19.224;2023-03-01T07:38:51;33.67;29.67;20.00
76049;PMS7003;64967;50.234;19.224;2023-03-01T07:41:18;47.33;38.00;25.33
76049;PMS7003;64967;50.234;19.224;2023-03-01T07:43:45;44.00;36.33;25.00
76049;PMS7003;64967;50.234;19.224;2023-03-01T07:46:12;56.00;39.33;24.00
76049;PMS7003;64967;50.234;19.224;2023-03-01T07:48:39;54.33;43.33;28.00
76049;PMS7003;64967;50.234;19.224;2023-03-01T07:51:06;61.00;43.33;27.00
76049;PMS7003;64967;50.234;19.224;2023-03-01T07:53:34;51.00;38.00;24.67
76049;PMS7003;64967;50.234;19.224;2023-03-01T07:56:02;45.67;41.33;24.00
76049;PMS7003;64967;50.234;19.224;2023-03-01T07:58:29;67.00;45.67;28.00
76049;PMS7003;64967;50.234;19.224;2023-03-01T08:01:00;49.67;39.67;26.00
76049;PMS7003;64967;50.234;19.224;2023-03-01T08:03:30;51.33;36.33;25.00
76049;PMS7003;64967;50.234;19.224;2023-03-01T08:06:01;64.33;45.00;30.00
76049;PMS7003;64967;50.234;19.224;2023-03-01T08:08:30;76.25;58.00;37.25
76049;PMS7003;64967;50.234;19.224;2023-03-01T08:10:58;78.25;58.50;37.25
76049;PMS7003;64967;50.234;19.224;2023-03-01T08:13:26;81.25;60.50;38.50
76049;PMS7003;64967;50.234;19.224;2023-03-01T08:15:53;89.50;63.75;40.75
76049;PMS7003;64967;50.234;19.224;2023-03-01T08:18:20;82.00;61.00;38.75
76049;PMS7003;64967;50.234;19.224;2023-03-01T08:20:48;85.00;60.50;36.25
76049;PMS7003;64967;50.234;19.224;2023-03-01T08:23:15;76.75;58.50;38.00
76049;PMS7003;64967;50.234;19.224;2023-03-01T08:25:42;82.25;62.25;39.50
76049;PMS7003;64967;50.234;19.224;2023-03-01T08:28:09;76.25;57.00;35.50
76049;PMS7003;64967;50.234;19.224;2023-03-01T08:30:36;78.25;56.00;37.75
76049;PMS7003;64967;50.234;19.224;2023-03-01T08:33:03;83.25;62.25;40.00
76049;PMS7003;64967;50.234;19.224;2023-03-01T08:35:30;90.75;65.00;42.00
76049;PMS7003;64967;50.234;19.224;2023-03-01T08:37:57;78.00;62.00;39.25
76049;PMS7003;64967;50.234;19.224;2023-03-01T08:40:24;64.00;49.33;31.33
76049;PMS7003;64967;50.234;19.224;2023-03-01T08:42:51;69.33;51.00;34.00
76049;PMS7003;64967;50.234;19.224;2023-03-01T08:45:18;69.33;56.33;34.00
76049;PMS7003;64967;50.234;19.224;2023-03-01T08:47:45;60.67;47.33;31.00
76049;PMS7003;64967;50.234;19.224;2023-03-01T08:50:12;62.00;50.33;32.00
76049;PMS7003;64967;50.234;19.224;2023-03-01T08:52:39;55.00;44.33;29.00
76049;PMS7003;64967;50.234;19.224;2023-03-01T08:55:06;62.33;46.00;30.67
76049;PMS7003;64967;50.234;19.224;2023-03-01T08:57:33;58.00;46.33;29.00
76049;PMS7003;64967;50.234;19.224;2023-03-01T09:00:00;49.00;40.33;26.00
76049;PMS7003;64967;50.234;19.224;2023-03-01T09:02:27;36.33;31.67;21.00
76049;PMS7003;64967;50.234;19.224;2023-03-01T09:04:54;46.00;35.00;24.00
76049;PMS7003;64967;50.234;19.224;2023-03-01T09:07:21;33.33;30.33;21.67
76049;PMS7003;64967;50.234;19.224;2023-03-01T09:09:48;49.33;40.00;25.33
76049;PMS7003;64967;50.234;19.224;2023-03-01T09:12:15;46.33;39.00;26.00
76049;PMS7003;64967;50.234;19.224;2023-03-01T09:14:42;35.33;30.00;21.67
76049;PMS7003;64967;50.234;19.224;2023-03-01T09:17:09;29.67;27.67;15.33
76049;PMS7003;64967;50.234;19.224;2023-03-01T09:19:36;41.00;35.00;23.00
76049;PMS7003;64967;50.234;19.224;2023-03-01T09:22:03;30.00;28.33;22.33
76049;PMS7003;64967;50.234;19.224;2023-03-01T09:24:31;32.67;27.33;20.00
76049;PMS7003;64967;50.234;19.224;2023-03-01T09:26:58;42.33;34.67;22.67
76049;PMS7003;64967;50.234;19.224;2023-03-01T09:29:25;34.00;25.33;17.00
76049;PMS7003;64967;50.234;19.224;2023-03-01T09:31:52;31.67;26.33;16.00
76049;PMS7003;64967;50.234;19.224;2023-03-01T09:34:22;40.33;34.00;22.00
76049;PMS7003;64967;50.234;19.224;2023-03-01T09:36:50;33.67;30.00;20.33
76049;PMS7003;64967;50.234;19.224;2023-03-01T09:39:17;49.00;36.67;22.33
76049;PMS7003;64967;50.234;19.224;2023-03-01T09:44:18;46.67;38.00;25.33
76049;PMS7003;64967;50.234;19.224;2023-03-01T09:47:09;43.33;34.00;21.00
76049;PMS7003;64967;50.234;19.224;2023-03-01T09:49:44;43.33;35.33;23.33
76049;PMS7003;64967;50.234;19.224;2023-03-01T09:55:30;50.33;35.00;21.00
76049;PMS7003;64967;50.234;19.224;2023-03-01T09:58:04;61.00;38.00;25.33
76049;PMS7003;64967;50.234;19.224;2023-03-01T10:00:37;63.33;49.00;29.33
76049;PMS7003;64967;50.234;19.224;2023-03-01T10:11:03;63.33;47.33;31.00
76049;PMS7003;64967;50.234;19.224;2023-03-01T10:13:46;56.00;44.00;28.00
76049;PMS7003;64967;50.234;19.224;2023-03-01T10:16:16;62.33;46.33;29.00
76049;PMS7003;64967;50.234;19.224;2023-03-01T10:18:51;55.33;41.67;26.33
76049;PMS7003;64967;50.234;19.224;2023-03-01T10:21:22;49.67;42.00;29.00
76049;PMS7003;64967;50.234;19.224;2023-03-01T10:23:50;59.00;48.00;30.00
76049;PMS7003;64967;50.234;19.224;2023-03-01T10:26:23;66.67;50.67;33.33
76049;PMS7003;64967;50.234;19.224;2023-03-01T10:29:10;71.00;51.33;33.67
76049;PMS7003;64967;50.234;19.224;2023-03-01T10:34:43;59.67;45.33;29.00
76049;PMS7003;64967;50.234;19.224;2023-03-01T10:37:10;47.33;40.00;27.00
76049;PMS7003;64967;50.234;19.224;2023-03-01T10:39:55;61.00;46.33;29.33
76049;PMS7003;64967;50.234;19.224;2023-03-01T10:42:29;66.00;50.33;32.33
76049;PMS7003;64967;50.234;19.224;2023-03-01T10:45:27;69.67;50.33;32.00
76049;PMS7003;64967;50.234;19.224;2023-03-01T10:50:43;68.33;49.33;32.00
76049;PMS7003;64967;50.234;19.224;2023-03-01T10:53:25;73.00;56.00;34.33
76049;PMS7003;64967;50.234;19.224;2023-03-01T10:55:56;67.00;53.33;34.33
76049;PMS7003;64967;50.234;19.224;2023-03-01T10:58:27;64.33;51.00;31.00
76049;PMS7003;64967;50.234;19.224;2023-03-01T11:03:37;58.67;43.67;30.00
76049;PMS7003;64967;50.234;19.224;2023-03-01T11:13:36;65.67;53.00;34.33
76049;PMS7003;64967;50.234;19.224;2023-03-01T11:16:13;71.00;55.00;35.33
76049;PMS7003;64967;50.234;19.224;2023-03-01T11:18:40;62.67;49.67;31.33
76049;PMS7003;64967;50.234;19.224;2023-03-01T11:21:13;69.67;54.67;35.00
76049;PMS7003;64967;50.234;19.224;2023-03-01T11:23:42;61.67;49.33;31.33
76049;PMS7003;64967;50.234;19.224;2023-03-01T11:26:13;69.00;55.00;35.00
76049;PMS7003;64967;50.234;19.224;2023-03-01T11:28:44;67.00;50.00;33.00
76049;PMS7003;64967;50.234;19.224;2023-03-01T11:31:18;71.67;52.67;33.00
76049;PMS7003;64967;50.234;19.224;2023-03-01T11:39:31;55.33;42.67;27.00
76049;PMS7003;64967;50.234;19.224;2023-03-01T11:42:15;49.00;39.67;27.00
76049;PMS7003;64967;50.234;19.224;2023-03-01T11:44:48;57.67;43.00;28.00
76049;PMS7003;64967;50.234;19.224;2023-03-01T11:55:30;44.00;39.33;26.33
76049;PMS7003;64967;50.234;19.224;2023-03-01T11:58:22;56.00;42.33;28.00
76049;PMS7003;64967;50.234;19.224;2023-03-01T12:06:57;49.00;36.75;27.75
76049;PMS7003;64967;50.234;19.224;2023-03-01T12:17:57;41.75;35.50;24.25
76049;PMS7003;64967;50.234;19.224;2023-03-01T12:20:53;48.75;39.25;25.00
76049;PMS7003;64967;50.234;19.224;2023-03-01T12:23:44;46.25;37.00;25.75
76049;PMS7003;64967;50.234;19.224;2023-03-01T12:29:26;42.25;34.50;23.75
76049;PMS7003;64967;50.234;19.224;2023-03-01T12:45:32;37.00;34.25;22.50
76049;PMS7003;64967;50.234;19.224;2023-03-01T12:48:17;38.75;34.75;23.25
76049;PMS7003;64967;50.234;19.224;2023-03-01T12:50:54;52.00;40.50;26.50
76049;PMS7003;64967;50.234;19.224;2023-03-01T12:53:28;49.00;39.50;25.25
76049;PMS7003;64967;50.234;19.224;2023-03-01T12:56:00;48.00;39.25;24.00
76049;PMS7003;64967;50.234;19.224;2023-03-01T12:58:32;46.00;38.00;26.00
76049;PMS7003;64967;50.234;19.224;2023-03-01T13:06:52;48.25;37.00;26.25
76049;PMS7003;64967;50.234;19.224;2023-03-01T13:09:39;39.25;34.50;24.25
76049;PMS7003;64967;50.234;19.224;2023-03-01T13:15:32;31.00;26.25;19.00
76049;PMS7003;64967;50.234;19.224;2023-03-01T13:18:02;33.00;25.75;19.00
76049;PMS7003;64967;50.234;19.224;2023-03-01T13:20:58;28.75;25.00;17.25
76049;PMS7003;64967;50.234;19.224;2023-03-01T13:23:29;30.50;27.75;18.50
76049;PMS7003;64967;50.234;19.224;2023-03-01T13:26:00;22.25;18.75;13.75
76049;PMS7003;64967;50.234;19.224;2023-03-01T13:28:40;18.25;16.25;11.50
76049;PMS7003;64967;50.234;19.224;2023-03-01T13:38:57;19.25;17.50;13.50
76049;PMS7003;64967;50.234;19.224;2023-03-01T13:44:12;22.00;16.75;13.00
76049;PMS7003;64967;50.234;19.224;2023-03-01T13:46:54;23.75;21.25;13.75
76049;PMS7003;64967;50.234;19.224;2023-03-01T13:49:26;19.75;17.00;11.75
76049;PMS7003;64967;50.234;19.224;2023-03-01T13:55:17;34.75;28.25;19.75
76049;PMS7003;64967;50.234;19.224;2023-03-01T13:57:49;30.25;27.25;17.25
76049;PMS7003;64967;50.234;19.224;2023-03-01T14:03:02;21.00;17.50;12.75
76049;PMS7003;64967;50.234;19.224;2023-03-01T14:05:35;30.00;20.00;15.00
76049;PMS7003;64967;50.234;19.224;2023-03-01T14:08:04;24.75;22.25;15.25
76049;PMS7003;64967;50.234;19.224;2023-03-01T14:10:50;24.00;19.00;14.00
76049;PMS7003;64967;50.234;19.224;2023-03-01T14:19:22;34.50;29.25;21.75
76049;PMS7003;64967;50.234;19.224;2023-03-01T14:24:52;26.00;19.25;14.00
76049;PMS7003;64967;50.234;19.224;2023-03-01T14:27:38;18.00;16.25;9.00
76049;PMS7003;64967;50.234;19.224;2023-03-01T14:30:15;34.25;27.00;20.50
76049;PMS7003;64967;50.234;19.224;2023-03-01T14:35:27;25.25;21.50;15.50
76049;PMS7003;64967;50.234;19.224;2023-03-01T14:37:56;23.25;20.00;16.00
76049;PMS7003;64967;50.234;19.224;2023-03-01T14:40:28;23.00;20.50;14.25
76049;PMS7003;64967;50.234;19.224;2023-03-01T14:42:59;24.75;20.50;13.50
76049;PMS7003;64967;50.234;19.224;2023-03-01T14:45:29;28.25;23.00;16.75
76049;PMS7003;64967;50.234;19.224;2023-03-01T14:48:00;20.75;19.50;15.00
76049;PMS7003;64967;50.234;19.224;2023-03-01T14:50:34;16.25;14.25;8.50
76049;PMS7003;64967;50.234;19.224;2023-03-01T14:53:06;13.50;10.00;8.00
76049;PMS7003;64967;50.234;19.224;2023-03-01T14:55:44;13.00;9.50;8.00
76049;PMS7003;64967;50.234;19.224;2023-03-01T14:58:23;7.25;5.00;4.00
76049;PMS7003;64967;50.234;19.224;2023-03-01T15:00:52;5.00;5.00;4.00
76049;PMS7003;64967;50.234;19.224;2023-03-01T15:03:31;12.50;9.75;7.50
76049;PMS7003;64967;50.234;19.224;2023-03-01T15:06:04;14.25;13.00;9.00
76049;PMS7003;64967;50.234;19.224;2023-03-01T15:08:33;14.00;12.00;9.00
76049;PMS7003;64967;50.234;19.224;2023-03-01T15:11:03;14.25;13.25;10.00
76049;PMS7003;64967;50.234;19.224;2023-03-01T15:13:40;11.25;9.25;7.00
76049;PMS7003;64967;50.234;19.224;2023-03-01T15:16:11;16.75;14.75;11.50
76049;PMS7003;64967;50.234;19.224;2023-03-01T15:18:43;17.00;14.50;12.50
76049;PMS7003;64967;50.234;19.224;2023-03-01T15:24:05;17.00;13.50;8.75
76049;PMS7003;64967;50.234;19.224;2023-03-01T15:26:42;22.50;20.00;15.00
76049;PMS7003;64967;50.234;19.224;2023-03-01T15:29:16;21.00;14.75;10.00
76049;PMS7003;64967;50.234;19.224;2023-03-01T15:31:53;44.25;36.00;23.50
76049;PMS7003;64967;50.234;19.224;2023-03-01T15:36:56;44.25;34.50;22.75
76049;PMS7003;64967;50.234;19.224;2023-03-01T15:39:36;29.75;21.25;13.25
76049;PMS7003;64967;50.234;19.224;2023-03-01T15:42:04;34.00;25.25;16.75
76049;PMS7003;64967;50.234;19.224;2023-03-01T15:44:35;21.50;17.75;13.00
76049;PMS7003;64967;50.234;19.224;2023-03-01T15:50:19;32.25;28.00;18.00
76049;PMS7003;64967;50.234;19.224;2023-03-01T15:52:48;24.50;22.25;16.25
76049;PMS7003;64967;50.234;19.224;2023-03-01T15:55:20;22.25;18.75;14.25
76049;PMS7003;64967;50.234;19.224;2023-03-01T15:57:49;45.50;37.50;27.00
76049;PMS7003;64967;50.234;19.224;2023-03-01T16:00:27;73.67;55.33;34.67
76049;PMS7003;64967;50.234;19.224;2023-03-01T16:02:55;83.67;61.67;37.67
76049;PMS7003;64967;50.234;19.224;2023-03-01T16:05:23;85.33;62.00;38.00
76049;PMS7003;64967;50.234;19.224;2023-03-01T16:07:52;99.00;72.50;45.75
76049;PMS7003;64967;50.234;19.224;2023-03-01T16:10:21;85.67;62.00;38.00
76049;PMS7003;64967;50.234;19.224;2023-03-01T16:12:49;70.33;51.33;33.00